sensor_id;sensor_type;location;lat;lon;timestamp;P1;durP1;ratioP1;P2;durP2;ratioP2
21621;SDS011;10973;46.706;12.340;2023-02-19T17:26:58;11.90;;;5.30;;
21621;SDS011;10973;46.706;12.340;2023-02-19T17:29:26;5.73;;;3.53;;
21621;SDS011;10973;46.706;12.340;2023-02-19T17:31:53;14.50;;;5.80;;
21621;SDS011;10973;46.706;12.340;2023-02-19T17:34:21;20.37;;;11.40;;
21621;SDS011;10973;46.706;12.340;2023-02-19T17:36:48;39.60;;;22.93;;
21621;SDS011;10973;46.706;12.340;2023-02-19T17:39:16;37.40;;;22.13;;
21621;SDS011;10973;46.706;12.340;2023-02-19T17:41:44;28.03;;;18.93;;
21621;SDS011;10973;46.706;12.340;2023-02-19T17:44:11;12.50;;;8.03;;
21621;SDS011;10973;46.706;12.340;2023-02-19T17:46:39;13.00;;;8.33;;
21621;SDS011;10973;46.706;12.340;2023-02-19T17:49:08;7.00;;;4.00;;
21621;SDS011;10973;46.706;12.340;2023-02-19T17:51:38;3.73;;;3.07;;
21621;SDS011;10973;46.706;12.340;2023-02-19T17:54:05;5.97;;;2.57;;
21621;SDS011;10973;46.706;12.340;2023-02-19T17:56:33;3.87;;;2.93;;
21621;SDS011;10973;46.706;12.340;2023-02-19T17:59:01;4.13;;;2.40;;
21621;SDS011;10973;46.706;12.340;2023-02-19T18:01:28;3.87;;;3.30;;
21621;SDS011;10973;46.706;12.340;2023-02-19T18:03:56;4.10;;;1.90;;
21621;SDS011;10973;46.706;12.340;2023-02-19T18:06:23;5.53;;;3.00;;
21621;SDS011;10973;46.706;12.340;2023-02-19T18:08:51;3.83;;;2.10;;
21621;SDS011;10973;46.706;12.340;2023-02-19T18:11:19;3.50;;;3.20;;
21621;SDS011;10973;46.706;12.340;2023-02-19T18:13:49;2.50;;;2.27;;
21621;SDS011;10973;46.706;12.340;2023-02-19T18:16:18;3.20;;;2.10;;
21621;SDS011;10973;46.706;12.340;2023-02-19T18:18:45;3.50;;;1.57;;
21621;SDS011;10973;46.706;12.340;2023-02-19T18:21:14;2.27;;;2.00;;
21621;SDS011;10973;46.706;12.340;2023-02-19T18:23:41;1.30;;;1.30;;
21621;SDS011;10973;46.706;12.340;2023-02-19T18:26:09;3.37;;;2.00;;
21621;SDS011;10973;46.706;12.340;2023-02-19T18:28:38;5.60;;;1.77;;
21621;SDS011;10973;46.706;12.340;2023-02-19T18:31:05;1.60;;;1.40;;
21621;SDS011;10973;46.706;12.340;2023-02-19T18:33:33;2.83;;;2.10;;
21621;SDS011;10973;46.706;12.340;2023-02-19T18:36:01;5.43;;;2.30;;
21621;SDS011;10973;46.706;12.340;2023-02-19T18:38:32;4.60;;;1.90;;
21621;SDS011;10973;46.706;12.340;2023-02-19T18:40:59;1.47;;;1.37;;
21621;SDS011;10973;46.706;12.340;2023-02-19T18:43:26;1.40;;;1.30;;
21621;SDS011;10973;46.706;12.340;2023-02-19T18:45:53;1.90;;;1.30;;
21621;SDS011;10973;46.706;12.340;2023-02-19T18:48:21;1.50;;;1.40;;
21621;SDS011;10973;46.706;12.340;2023-02-19T18:50:48;1.50;;;1.40;;
21621;SDS011;10973;46.706;12.340;2023-02-19T18:53:16;1.77;;;1.27;;
21621;SDS011;10973;46.706;12.340;2023-02-19T18:55:43;1.30;;;1.20;;
21621;SDS011;10973;46.706;12.340;2023-02-19T18:58:10;1.30;;;1.30;;
21621;SDS011;10973;46.706;12.340;2023-02-19T19:00:38;1.90;;;1.80;;
21621;SDS011;10973;46.706;12.340;2023-02-19T19:03:08;1.40;;;1.30;;
21621;SDS011;10973;46.706;12.340;2023-02-19T19:05:38;1.40;;;1.40;;
21621;SDS011;10973;46.706;12.340;2023-02-19T19:08:06;1.70;;;1.20;;
21621;SDS011;10973;46.706;12.340;2023-02-19T19:10:33;1.87;;;1.20;;
21621;SDS011;10973;46.706;12.340;2023-02-19T19:13:00;1.20;;;1.20;;
21621;SDS011;10973;46.706;12.340;2023-02-19T19:15:28;1.10;;;1.10;;
21621;SDS011;10973;46.706;12.340;2023-02-19T19:17:58;4.47;;;1.30;;
21621;SDS011;10973;46.706;12.340;2023-02-19T19:20:28;1.57;;;1.30;;
21621;SDS011;10973;46.706;12.340;2023-02-19T19:22:55;1.97;;;1.70;;
21621;SDS011;10973;46.706;12.340;2023-02-19T19:25:26;3.37;;;1.73;;
21621;SDS011;10973;46.706;12.340;2023-02-19T19:27:53;2.30;;;2.07;;
21621;SDS011;10973;46.706;12.340;2023-02-19T19:30:21;3.07;;;1.90;;
21621;SDS011;10973;46.706;12.340;2023-02-19T19:32:49;3.33;;;2.20;;
21621;SDS011;10973;46.706;12.340;2023-02-19T19:35:18;3.13;;;2.77;;
21621;SDS011;10973;46.706;12.340;2023-02-19T19:37:47;4.33;;;2.90;;
21621;SDS011;10973;46.706;12.340;2023-02-19T19:40:15;3.57;;;2.60;;
21621;SDS011;10973;46.706;12.340;2023-02-19T19:42:44;2.80;;;2.50;;
21621;SDS011;10973;46.706;12.340;2023-02-19T19:45:12;3.33;;;3.03;;
21621;SDS011;10973;46.706;12.340;2023-02-19T19:47:41;2.07;;;1.97;;
21621;SDS011;10973;46.706;12.340;2023-02-19T19:50:11;6.30;;;3.17;;
21621;SDS011;10973;46.706;12.340;2023-02-19T19:52:38;3.20;;;2.60;;
21621;SDS011;10973;46.706;12.340;2023-02-19T19:55:06;5.73;;;2.93;;
21621;SDS011;10973;46.706;12.340;2023-02-19T19:57:34;4.27;;;2.70;;
21621;SDS011;10973;46.706;12.340;2023-02-19T20:00:03;3.53;;;2.50;;
21621;SDS011;10973;46.706;12.340;2023-02-19T20:02:32;2.10;;;2.00;;
21621;SDS011;10973;46.706;12.340;2023-02-19T20:04:59;2.70;;;2.20;;
21621;SDS011;10973;46.706;12.340;2023-02-19T20:07:26;2.60;;;2.33;;
21621;SDS011;10973;46.706;12.340;2023-02-19T20:09:53;4.37;;;2.37;;
21621;SDS011;10973;46.706;12.340;2023-02-19T20:12:21;1.97;;;1.60;;
21621;SDS011;10973;46.706;12.340;2023-02-19T20:14:48;2.37;;;2.07;;
21621;SDS011;10973;46.706;12.340;2023-02-19T20:17:15;3.73;;;2.10;;
21621;SDS011;10973;46.706;12.340;2023-02-19T20:19:43;2.77;;;1.90;;
21621;SDS011;10973;46.706;12.340;2023-02-19T20:22:11;1.77;;;1.70;;
21621;SDS011;10973;46.706;12.340;2023-02-19T20:24:38;1.60;;;1.50;;
21621;SDS011;10973;46.706;12.340;2023-02-19T20:27:06;2.70;;;2.37;;
21621;SDS011;10973;46.706;12.340;2023-02-19T20:29:34;1.60;;;1.40;;
21621;SDS011;10973;46.706;12.340;2023-02-19T20:32:01;1.50;;;1.40;;
21621;SDS011;10973;46.706;12.340;2023-02-19T20:34:29;1.73;;;1.23;;
21621;SDS011;10973;46.706;12.340;2023-02-19T20:36:57;1.60;;;1.50;;
21621;SDS011;10973;46.706;12.340;2023-02-19T20:39:25;1.73;;;1.50;;
21621;SDS011;10973;46.706;12.340;2023-02-19T20:41:52;1.40;;;1.30;;
21621;SDS011;10973;46.706;12.340;2023-02-19T20:44:20;2.03;;;1.43;;
21621;SDS011;10973;46.706;12.340;2023-02-19T20:46:48;1.60;;;1.40;;
21621;SDS011;10973;46.706;12.340;2023-02-19T20:49:18;1.90;;;1.30;;
21621;SDS011;10973;46.706;12.340;2023-02-19T20:51:52;1.30;;;1.30;;
21621;SDS011;10973;46.706;12.340;2023-02-19T20:54:27;1.43;;;1.20;;
21621;SDS011;10973;46.706;12.340;2023-02-19T20:56:58;2.10;;;1.40;;
21621;SDS011;10973;46.706;12.340;2023-02-19T20:59:29;1.27;;;1.20;;
21621;SDS011;10973;46.706;12.340;2023-02-19T21:01:59;1.30;;;1.20;;
21621;SDS011;10973;46.706;12.340;2023-02-19T21:04:29;1.40;;;1.40;;
21621;SDS011;10973;46.706;12.340;2023-02-19T21:06:56;1.13;;;1.13;;
21621;SDS011;10973;46.706;12.340;2023-02-19T21:09:24;1.90;;;1.33;;
21621;SDS011;10973;46.706;12.340;2023-02-19T21:11:51;1.10;;;1.10;;
21621;SDS011;10973;46.706;12.340;2023-02-19T21:14:19;1.00;;;1.00;;
21621;SDS011;10973;46.706;12.340;2023-02-19T21:16:46;1.27;;;1.17;;
21621;SDS011;10973;46.706;12.340;2023-02-19T21:19:14;1.57;;;1.47;;
21621;SDS011;10973;46.706;12.340;2023-02-19T21:21:41;1.60;;;1.50;;
21621;SDS011;10973;46.706;12.340;2023-02-19T21:24:08;1.20;;;1.20;;
21621;SDS011;10973;46.706;12.340;2023-02-19T21:26:39;1.10;;;1.10;;
21621;SDS011;10973;46.706;12.340;2023-02-19T21:29:09;1.50;;;1.40;;
21621;SDS011;10973;46.706;12.340;2023-02-19T21:31:43;1.53;;;1.43;;
21621;SDS011;10973;46.706;12.340;2023-02-19T21:34:14;1.30;;;1.30;;
21621;SDS011;10973;46.706;12.340;2023-02-19T21:36:45;1.73;;;1.20;;
21621;SDS011;10973;46.706;12.340;2023-02-19T21:39:14;1.70;;;1.60;;
21621;SDS011;10973;46.706;12.340;2023-02-19T21:41:44;2.40;;;2.20;;
21621;SDS011;10973;46.706;12.340;2023-02-19T21:44:12;2.80;;;2.50;;
21621;SDS011;10973;46.706;12.340;2023-02-19T21:46:39;3.53;;;2.50;;
21621;SDS011;10973;46.706;12.340;2023-02-19T21:49:07;5.23;;;3.47;;
21621;SDS011;10973;46.706;12.340;2023-02-19T21:51:37;5.70;;;3.20;;
21621;SDS011;10973;46.706;12.340;2023-02-19T21:54:07;7.40;;;3.93;;
21621;SDS011;10973;46.706;12.340;2023-02-19T21:56:48;4.27;;;3.03;;
21621;SDS011;10973;46.706;12.340;2023-02-19T21:59:16;4.43;;;2.83;;
21621;SDS011;10973;46.706;12.340;2023-02-19T22:01:45;3.10;;;2.77;;
21621;SDS011;10973;46.706;12.340;2023-02-19T22:04:14;3.13;;;2.50;;
21621;SDS011;10973;46.706;12.340;2023-02-19T22:06:44;4.07;;;2.93;;
21621;SDS011;10973;46.706;12.340;2023-02-19T22:09:12;2.83;;;2.10;;
21621;SDS011;10973;46.706;12.340;2023-02-19T22:11:40;2.60;;;2.40;;
21621;SDS011;10973;46.706;12.340;2023-02-19T22:14:07;2.40;;;2.20;;
21621;SDS011;10973;46.706;12.340;2023-02-19T22:16:35;2.03;;;1.83;;
21621;SDS011;10973;46.706;12.340;2023-02-19T22:19:02;2.23;;;2.03;;
21621;SDS011;10973;46.706;12.340;2023-02-19T22:21:31;3.17;;;2.00;;
21621;SDS011;10973;46.706;12.340;2023-02-19T22:23:59;2.17;;;2.00;;
21621;SDS011;10973;46.706;12.340;2023-02-19T22:26:30;1.93;;;1.73;;
21621;SDS011;10973;46.706;12.340;2023-02-19T22:29:00;2.43;;;1.93;;
21621;SDS011;10973;46.706;12.340;2023-02-19T22:31:30;3.70;;;2.30;;
21621;SDS011;10973;46.706;12.340;2023-02-19T22:33:58;2.40;;;2.00;;
21621;SDS011;10973;46.706;12.340;2023-02-19T22:36:27;2.43;;;2.23;;
21621;SDS011;10973;46.706;12.340;2023-02-19T22:38:56;2.10;;;2.00;;
21621;SDS011;10973;46.706;12.340;2023-02-19T22:41:25;2.83;;;2.50;;
21621;SDS011;10973;46.706;12.340;2023-02-19T22:48:01;3.27;;;2.80;;
21621;SDS011;10973;46.706;12.340;2023-02-19T22:50:28;4.10;;;2.83;;
21621;SDS011;10973;46.706;12.340;2023-02-19T22:52:56;2.70;;;2.23;;
21621;SDS011;10973;46.706;12.340;2023-02-19T22:55:23;2.93;;;2.63;;
21621;SDS011;10973;46.706;12.340;2023-02-19T22:57:50;2.07;;;1.97;;
21621;SDS011;10973;46.706;12.340;2023-02-19T23:00:18;4.63;;;3.17;;
21621;SDS011;10973;46.706;12.340;2023-02-19T23:02:47;6.93;;;3.73;;
21621;SDS011;10973;46.706;12.340;2023-02-19T23:05:15;3.50;;;3.00;;
21621;SDS011;10973;46.706;12.340;2023-02-19T23:07:43;2.87;;;2.63;;
21621;SDS011;10973;46.706;12.340;2023-02-19T23:16:53;3.07;;;2.77;;
21621;SDS011;10973;46.706;12.340;2023-02-19T23:19:20;3.40;;;2.57;;
21621;SDS011;10973;46.706;12.340;2023-02-19T23:21:48;3.50;;;2.13;;
21621;SDS011;10973;46.706;12.340;2023-02-19T23:28:33;5.03;;;2.80;;
21621;SDS011;10973;46.706;12.340;2023-02-19T23:31:01;3.53;;;2.50;;
21621;SDS011;10973;46.706;12.340;2023-02-19T23:33:28;4.97;;;2.70;;
21621;SDS011;10973;46.706;12.340;2023-02-19T23:35:56;2.10;;;2.00;;
21621;SDS011;10973;46.706;12.340;2023-02-19T23:38:23;2.63;;;2.40;;
21621;SDS011;10973;46.706;12.340;2023-02-19T23:40:50;2.87;;;2.30;;
21621;SDS011;10973;46.706;12.340;2023-02-19T23:43:17;3.53;;;2.50;;
21621;SDS011;10973;46.706;12.340;2023-02-19T23:49:51;4.37;;;2.80;;
21621;SDS011;10973;46.706;12.340;2023-02-19T23:52:19;3.47;;;2.30;;
21621;SDS011;10973;46.706;12.340;2023-02-19T23:54:47;2.40;;;2.20;;
21621;SDS011;10973;46.706;12.340;2023-02-19T23:57:14;3.63;;;2.30;;
21621;SDS011;10973;46.706;12.340;2023-02-19T23:59:41;3.47;;;2.30;;
